San Pedro de Macoris, Dominican Republic
Current Conditions -  °F | °C
As of 6:00 AM on Wednesday 22 Oct 2014 (Local Time) from MDPC Reporting Station
Scattered Clouds Scattered Clouds  
Wind Chill: 81°   Ceiling: Unl
Heat Index: 85°   Visibility: 6mi
Dew Point: 73°   Wind: 6mph
Humidity: 79%   Direction: 130°SE
Pressure: 29.91"   Gusts: NA
Location:  18.45°N, 68.3°W
Report Text: MDPC 221000Z 13005KT 9999 SCT023 27/23 Q1013
Loading
Personal Weather Stations






























Interactive Weather Map
Tropical Storm Tracking
New forecast layout! Learn more

10-Day Weather Forecast

Advertisements
Track Severe Weather on mobile